createdAt,value
2022-08-24T00:00:14.571Z,100589.94
2022-08-24T00:02:41.611Z,100592.91
2022-08-24T00:05:14.431Z,100592.34
2022-08-24T00:07:41.728Z,100593.47
2022-08-24T00:10:10.516Z,100594.25
2022-08-24T00:12:37.489Z,100587.94
2022-08-24T00:15:05.971Z,100594.91
2022-08-24T00:17:35.057Z,100590.25
2022-08-24T00:20:02.661Z,100592.44
2022-08-24T00:22:30.702Z,100595.53
2022-08-24T00:24:57.485Z,100597.59
2022-08-24T00:27:24.418Z,100604.22
2022-08-24T00:29:51.105Z,100598.06
2022-08-24T00:32:17.780Z,100603.56
2022-08-24T00:34:45.927Z,100605.56
2022-08-24T00:37:28.492Z,100605.97
2022-08-24T00:39:56.013Z,100597.91
2022-08-24T00:42:23.686Z,100606.78
2022-08-24T00:44:50.476Z,100611.94
2022-08-24T00:47:23.959Z,100604.59
2022-08-24T00:49:59.695Z,100604.44
2022-08-24T00:52:35.407Z,100601.72
2022-08-24T00:55:12.273Z,100607.34
2022-08-24T00:57:43.146Z,100602.72
2022-08-24T01:00:22.037Z,100599.03
2022-08-24T01:02:55.047Z,100607.16
2022-08-24T01:05:21.765Z,100603.00
2022-08-24T01:07:50.549Z,100607.56
2022-08-24T01:10:21.317Z,100609.97
2022-08-24T01:13:00.427Z,100598.56
2022-08-24T01:15:30.775Z,100596.63
2022-08-24T01:18:17.286Z,100600.31
2022-08-24T01:20:48.776Z,100596.16
2022-08-24T01:23:36.373Z,100600.59
2022-08-24T01:26:05.653Z,100603.94
2022-08-24T01:28:34.404Z,100596.09
2022-08-24T01:31:04.237Z,100593.13
2022-08-24T01:33:32.051Z,100591.91
2022-08-24T01:36:09.588Z,100590.00
2022-08-24T01:38:36.615Z,100583.56
2022-08-24T01:41:04.731Z,100589.91
2022-08-24T01:43:32.214Z,100581.81
2022-08-24T01:46:06.307Z,100587.41
2022-08-24T01:48:33.444Z,100592.75
2022-08-24T01:51:00.171Z,100602.34
2022-08-24T01:53:27.136Z,100606.47
2022-08-24T01:55:54.072Z,100609.72
2022-08-24T01:58:20.815Z,100615.22
2022-08-24T02:00:47.762Z,100618.44
2022-08-24T02:03:14.710Z,100627.28
2022-08-24T02:05:44.842Z,100622.78
2022-08-24T02:08:15.041Z,100622.00
2022-08-24T02:10:41.864Z,100627.97
2022-08-24T02:13:15.888Z,100623.91
2022-08-24T02:15:42.655Z,100628.28
2022-08-24T02:18:15.615Z,100638.78
2022-08-24T02:20:43.512Z,100637.53
2022-08-24T02:23:10.293Z,100633.00
2022-08-24T02:25:37.087Z,100644.78
2022-08-24T02:28:04.536Z,100636.53
2022-08-24T02:30:32.079Z,100641.09
2022-08-24T02:32:59.319Z,100641.91
2022-08-24T02:35:29.635Z,100644.78
2022-08-24T02:37:57.695Z,100645.25
2022-08-24T02:40:26.095Z,100644.44
2022-08-24T02:42:53.542Z,100645.13
2022-08-24T02:45:21.792Z,100636.25
2022-08-24T02:47:48.529Z,100641.97
2022-08-24T02:50:17.726Z,100646.13
2022-08-24T02:52:45.356Z,100648.09
2022-08-24T02:55:15.846Z,100641.31
2022-08-24T02:57:47.894Z,100640.03
2022-08-24T03:00:21.313Z,100645.06
2022-08-24T03:02:52.449Z,100647.31
2022-08-24T03:05:20.705Z,100642.13
2022-08-24T03:07:47.842Z,100645.31
2022-08-24T03:10:15.211Z,100648.41
2022-08-24T03:12:42.378Z,100641.47
2022-08-24T03:15:11.378Z,100642.91
2022-08-24T03:17:39.845Z,100640.16
2022-08-24T03:20:10.965Z,100640.38
2022-08-24T03:22:38.808Z,100636.03
2022-08-24T03:25:06.686Z,100640.03
2022-08-24T03:27:33.426Z,100637.63
2022-08-24T03:30:01.191Z,100633.09
2022-08-24T03:32:33.203Z,100635.38
2022-08-24T03:35:01.895Z,100636.81
2022-08-24T03:37:29.886Z,100635.84
2022-08-24T03:39:56.623Z,100633.91
2022-08-24T03:42:23.427Z,100639.72
2022-08-24T03:44:50.258Z,100639.91
2022-08-24T03:47:18.817Z,100631.00
2022-08-24T03:49:45.854Z,100637.44
2022-08-24T03:52:12.789Z,100643.47
2022-08-24T03:54:40.629Z,100641.53
2022-08-24T03:57:07.942Z,100637.50
2022-08-24T03:59:34.858Z,100634.75
2022-08-24T04:02:08.026Z,100637.97
2022-08-24T04:04:36.969Z,100642.81
2022-08-24T04:07:04.617Z,100654.59
2022-08-24T04:09:32.457Z,100649.28
2022-08-24T04:11:59.375Z,100650.41
2022-08-24T04:14:27.884Z,100648.81
2022-08-24T04:17:20.707Z,100648.66
2022-08-24T04:20:00.436Z,100648.66
2022-08-24T04:22:34.164Z,100654.63
2022-08-24T04:25:01.038Z,100642.03
2022-08-24T04:27:30.863Z,100648.31
2022-08-24T04:29:57.664Z,100651.41
2022-08-24T04:32:27.582Z,100659.44
2022-08-24T04:34:56.232Z,100660.91
2022-08-24T04:37:28.178Z,100657.50
2022-08-24T04:39:56.868Z,100670.41
2022-08-24T04:42:33.469Z,100674.94
2022-08-24T04:45:00.881Z,100670.56
2022-08-24T04:47:27.607Z,100682.84
2022-08-24T04:49:54.449Z,100677.97
2022-08-24T04:52:21.422Z,100675.91
2022-08-24T04:54:48.177Z,100673.50
2022-08-24T04:57:21.573Z,100681.41
2022-08-24T04:59:49.134Z,100682.19
2022-08-24T05:02:16.637Z,100695.28
2022-08-24T05:04:46.896Z,100689.78
2022-08-24T05:07:13.811Z,100689.94
2022-08-24T05:09:43.363Z,100693.00
2022-08-24T05:12:11.785Z,100691.72
2022-08-24T05:14:44.158Z,100695.13
2022-08-24T05:17:10.959Z,100693.81
2022-08-24T05:19:37.823Z,100690.94
2022-08-24T05:22:05.344Z,100689.81
2022-08-24T05:24:32.389Z,100697.84
2022-08-24T05:27:00.652Z,100696.09
2022-08-24T05:29:28.180Z,100698.34
2022-08-24T05:31:57.167Z,100702.72
2022-08-24T05:34:24.590Z,100700.97
2022-08-24T05:36:52.043Z,100699.00
2022-08-24T05:39:31.038Z,100702.06
2022-08-24T05:41:59.794Z,100697.38
2022-08-24T05:44:31.365Z,100699.00
2022-08-24T05:47:01.455Z,100705.28
2022-08-24T05:49:28.829Z,100705.44
2022-08-24T05:51:55.669Z,100711.75
2022-08-24T05:54:23.572Z,100709.50
2022-08-24T05:57:04.569Z,100708.69
2022-08-24T05:59:37.785Z,100706.28
2022-08-24T06:02:10.101Z,100707.06
2022-08-24T06:04:38.251Z,100715.16
2022-08-24T06:07:10.689Z,100714.97
2022-08-24T06:09:41.632Z,100720.31
2022-08-24T06:12:10.301Z,100717.25
2022-08-24T06:14:37.037Z,100720.97
2022-08-24T06:17:08.390Z,100717.41
2022-08-24T06:19:36.139Z,100712.56
2022-08-24T06:22:03.576Z,100709.97
2022-08-24T06:24:49.621Z,100714.47
2022-08-24T06:27:21.029Z,100710.88
2022-08-24T06:29:52.224Z,100716.69
2022-08-24T06:32:38.713Z,100720.63
2022-08-24T06:35:07.909Z,100717.88
2022-08-24T06:37:38.473Z,100720.72
2022-08-24T06:40:07.507Z,100723.78
2022-08-24T06:42:35.319Z,100726.88
2022-08-24T06:45:03.109Z,100723.78
2022-08-24T06:47:30.929Z,100724.56
2022-08-24T06:50:00.484Z,100733.28
2022-08-24T06:52:30.077Z,100736.03
2022-08-24T06:54:57.399Z,100733.34
2022-08-24T06:57:24.303Z,100736.22
2022-08-24T06:59:53.075Z,100736.03
2022-08-24T07:02:19.969Z,100743.03
2022-08-24T07:04:47.524Z,100743.94
2022-08-24T07:07:32.656Z,100744.47
2022-08-24T07:10:01.055Z,100746.28
2022-08-24T07:12:27.815Z,100739.00
2022-08-24T07:14:55.217Z,100750.66
2022-08-24T07:17:22.963Z,100737.13
2022-08-24T07:19:50.168Z,100747.34
2022-08-24T07:22:36.807Z,100745.91
2022-08-24T07:25:04.133Z,100737.75
2022-08-24T07:27:31.614Z,100747.47
2022-08-24T07:30:23.077Z,100749.31
2022-08-24T07:32:45.039Z,100749.50
2022-08-24T07:35:11.919Z,100747.88
2022-08-24T07:37:41.343Z,100750.88
2022-08-24T07:40:10.057Z,100738.25
2022-08-24T07:42:37.103Z,100744.66
2022-08-24T07:45:04.153Z,100743.84
2022-08-24T07:47:42.332Z,100747.47
2022-08-24T07:50:22.871Z,100747.06
2022-08-24T07:52:49.568Z,100750.81
2022-08-24T07:55:16.728Z,100749.97
2022-08-24T07:57:45.212Z,100748.97
2022-08-24T08:00:15.973Z,100767.91
2022-08-24T08:02:47.336Z,100758.94
2022-08-24T08:05:19.804Z,100757.91
2022-08-24T08:08:02.171Z,100753.13
2022-08-24T08:10:31.008Z,100759.84
2022-08-24T08:12:58.153Z,100755.13
2022-08-24T08:15:26.599Z,100758.47
2022-08-24T08:18:00.193Z,100759.28
2022-08-24T08:20:27.053Z,100763.06
2022-08-24T08:23:12.481Z,100764.09
2022-08-24T08:26:16.453Z,100771.34
2022-08-24T08:28:54.819Z,100764.69
2022-08-24T08:31:21.593Z,100770.66
2022-08-24T08:33:49.028Z,100764.69
2022-08-24T08:36:17.144Z,100766.53
2022-08-24T08:38:49.162Z,100765.03
2022-08-24T08:41:17.749Z,100765.03
2022-08-24T08:44:08.764Z,100769.63
2022-08-24T08:47:00.625Z,100761.84
2022-08-24T08:50:04.415Z,100757.56
2022-08-24T08:53:03.201Z,100761.38
2022-08-24T08:55:47.637Z,100764.47
2022-08-24T08:58:18.171Z,100762.59
2022-08-24T09:01:33.044Z,100767.44
2022-08-24T09:04:21.648Z,100767.69
2022-08-24T09:07:21.702Z,100760.91
2022-08-24T09:10:12.770Z,100763.75
2022-08-24T09:13:02.836Z,100764.94
2022-08-24T09:15:39.953Z,100761.03
2022-08-24T09:18:13.943Z,100770.63
2022-08-24T09:20:49.714Z,100766.16
2022-08-24T09:23:38.537Z,100769.22
2022-08-24T09:26:29.234Z,100765.81
2022-08-24T09:29:11.939Z,100769.13
2022-08-24T09:31:43.831Z,100765.47
2022-08-24T09:34:24.909Z,100762.16
2022-08-24T09:37:04.796Z,100760.13
2022-08-24T09:39:36.631Z,100767.38
2022-08-24T09:42:30.619Z,100764.94
2022-08-24T09:45:16.270Z,100759.34
2022-08-24T09:48:21.042Z,100757.84
2022-08-24T09:51:12.030Z,100757.84
2022-08-24T09:54:00.128Z,100753.44
2022-08-24T09:56:47.057Z,100759.88
2022-08-24T09:59:23.299Z,100754.63
2022-08-24T10:02:22.656Z,100760.25
2022-08-24T10:05:14.165Z,100749.44
2022-08-24T10:07:55.820Z,100748.88
2022-08-24T10:11:10.594Z,100733.19
2022-08-24T10:14:06.576Z,100739.00
2022-08-24T10:17:07.875Z,100739.97
2022-08-24T10:20:05.619Z,100738.72
2022-08-24T10:22:58.289Z,100734.75
2022-08-24T10:25:34.945Z,100737.59
2022-08-24T10:28:27.706Z,100732.34
2022-08-24T10:31:12.947Z,100728.81
2022-08-24T10:34:07.069Z,100722.22
2022-08-24T10:36:42.738Z,100727.69
2022-08-24T10:39:43.863Z,100716.28
2022-08-24T10:42:48.407Z,100721.69
2022-08-24T10:45:32.055Z,100711.22
2022-08-24T10:48:33.499Z,100714.34
2022-08-24T10:51:36.174Z,100714.34
2022-08-24T10:54:04.399Z,100710.09
2022-08-24T10:57:11.592Z,100709.50
2022-08-24T10:59:59.283Z,100707.91
2022-08-24T11:02:37.287Z,100704.03
2022-08-24T11:05:08.595Z,100699.66
2022-08-24T11:07:37.563Z,100707.91
2022-08-24T11:10:08.427Z,100699.97
2022-08-24T11:12:41.468Z,100699.63
2022-08-24T11:15:22.074Z,100697.78
2022-08-24T11:17:56.698Z,100697.72
2022-08-24T11:20:36.540Z,100694.94
2022-08-24T11:23:07.826Z,100688.91
2022-08-24T11:25:41.968Z,100684.41
2022-08-24T11:28:20.597Z,100676.38
2022-08-24T11:30:47.590Z,100680.28
2022-08-24T11:33:49.657Z,100674.63
2022-08-24T11:36:25.852Z,100673.53
2022-08-24T11:39:23.678Z,100675.94
2022-08-24T11:41:57.341Z,100673.44
2022-08-24T11:44:49.765Z,100670.19
2022-08-24T11:47:40.465Z,100672.38
2022-08-24T11:50:31.200Z,100671.19
2022-08-24T11:56:28.550Z,100662.25
2022-08-24T11:59:26.754Z,100658.38
2022-08-24T12:01:59.671Z,100654.38
2022-08-24T12:04:40.622Z,100656.72
2022-08-24T12:07:23.057Z,100656.03
2022-08-24T12:10:22.043Z,100659.91
2022-08-24T12:12:58.591Z,100653.31
2022-08-24T12:15:57.192Z,100639.94
2022-08-24T12:18:39.312Z,100642.72
2022-08-24T12:21:12.565Z,100641.84
2022-08-24T12:23:43.657Z,100650.94
2022-08-24T12:26:17.185Z,100640.16
2022-08-24T12:28:54.195Z,100638.41
2022-08-24T12:31:45.731Z,100634.75
2022-08-24T12:34:29.964Z,100628.78
2022-08-24T12:37:16.400Z,100625.72
2022-08-24T12:40:08.856Z,100626.53
2022-08-24T12:42:49.882Z,100625.06
2022-08-24T12:45:20.854Z,100614.50
2022-08-24T12:48:14.746Z,100625.53
2022-08-24T12:51:26.893Z,100618.34
2022-08-24T12:54:18.208Z,100617.81
2022-08-24T12:57:07.819Z,100615.50
2022-08-24T12:59:45.315Z,100621.38
2022-08-24T13:02:15.163Z,100617.16
2022-08-24T13:04:51.174Z,100615.75
2022-08-24T13:07:23.992Z,100610.53
2022-08-24T13:09:56.771Z,100611.16
2022-08-24T13:12:41.281Z,100617.63
2022-08-24T13:15:23.506Z,100613.13
2022-08-24T13:18:20.170Z,100613.59
2022-08-24T13:20:49.949Z,100618.59
2022-08-24T13:23:20.700Z,100612.19
2022-08-24T13:25:47.312Z,100611.63
2022-08-24T13:28:20.277Z,100609.28
2022-08-24T13:30:53.516Z,100605.63
2022-08-24T13:33:43.542Z,100604.84
2022-08-24T13:36:29.132Z,100606.50
2022-08-24T13:39:17.497Z,100597.84
2022-08-24T13:42:14.276Z,100598.41
2022-08-24T13:45:01.332Z,100588.38
2022-08-24T13:47:52.107Z,100596.06
2022-08-24T13:50:43.815Z,100593.41
2022-08-24T13:53:35.143Z,100592.66
2022-08-24T13:56:31.007Z,100594.22
2022-08-24T13:59:31.009Z,100583.94
2022-08-24T14:02:21.091Z,100585.47
2022-08-24T14:05:29.607Z,100581.69
2022-08-24T14:08:27.417Z,100577.53
2022-08-24T14:11:14.596Z,100581.00
2022-08-24T14:14:03.287Z,100579.69
2022-08-24T14:17:24.140Z,100568.47
2022-08-24T14:20:22.255Z,100579.81
2022-08-24T14:22:51.974Z,100574.38
2022-08-24T14:25:23.198Z,100576.47
2022-08-24T14:27:58.912Z,100568.56
2022-08-24T14:30:25.688Z,100571.19
2022-08-24T14:32:59.647Z,100562.88
2022-08-24T14:35:34.344Z,100568.53
2022-08-24T14:38:53.632Z,100557.63
2022-08-24T14:41:52.228Z,100558.63
2022-08-24T14:44:48.600Z,100568.25
2022-08-24T14:47:33.594Z,100559.56
2022-08-24T14:50:38.230Z,100556.38
2022-08-24T14:53:18.820Z,100555.56
2022-08-24T14:56:06.035Z,100557.78
2022-08-24T14:59:01.956Z,100560.19
2022-08-24T15:01:39.279Z,100556.75
2022-08-24T15:04:37.444Z,100548.81
2022-08-24T15:07:23.171Z,100556.13
2022-08-24T15:09:51.819Z,100543.75
2022-08-24T15:12:58.061Z,100559.53
2022-08-24T15:15:49.857Z,100552.84
2022-08-24T15:18:37.038Z,100547.88
2022-08-24T15:21:16.521Z,100548.97
2022-08-24T15:24:28.345Z,100546.31
2022-08-24T15:27:27.311Z,100532.84
2022-08-24T15:29:58.300Z,100535.16
2022-08-24T15:32:43.597Z,100532.47
2022-08-24T15:35:27.100Z,100527.66
2022-08-24T15:37:54.692Z,100517.31
2022-08-24T15:40:31.666Z,100519.59
2022-08-24T15:43:03.854Z,100533.03
2022-08-24T15:45:32.238Z,100523.31
2022-08-24T15:48:01.037Z,100511.19
2022-08-24T15:50:34.899Z,100521.91
2022-08-24T15:53:07.251Z,100521.31
2022-08-24T15:55:46.471Z,100523.53
2022-08-24T15:58:34.803Z,100527.00
2022-08-24T16:01:38.091Z,100527.00
2022-08-24T16:04:46.429Z,100526.50
2022-08-24T16:07:25.506Z,100530.00
2022-08-24T16:10:08.832Z,100525.13
2022-08-24T16:12:36.397Z,100522.13
2022-08-24T16:15:17.332Z,100533.19
2022-08-24T16:17:51.462Z,100531.09
2022-08-24T16:20:24.593Z,100527.25
2022-08-24T16:23:00.773Z,100523.50
2022-08-24T16:25:31.618Z,100526.00
2022-08-24T16:28:07.717Z,100523.88
2022-08-24T16:30:43.142Z,100528.25
2022-08-24T16:33:30.723Z,100527.22
2022-08-24T16:36:03.267Z,100530.34
2022-08-24T16:38:32.382Z,100529.16
2022-08-24T16:41:02.107Z,100535.78
2022-08-24T16:43:29.747Z,100536.06
2022-08-24T16:45:57.984Z,100528.25
2022-08-24T16:48:24.696Z,100526.47
2022-08-24T16:50:51.377Z,100529.69
2022-08-24T16:53:18.149Z,100531.28
2022-08-24T16:55:45.023Z,100539.19
2022-08-24T16:58:11.981Z,100538.00
2022-08-24T17:00:38.739Z,100536.13
2022-08-24T17:03:05.612Z,100536.34
2022-08-24T17:05:33.072Z,100541.66
2022-08-24T17:08:01.754Z,100541.28
2022-08-24T17:10:28.431Z,100537.44
2022-08-24T17:12:55.306Z,100532.44
2022-08-24T17:15:23.529Z,100534.47
2022-08-24T17:17:58.502Z,100535.78
2022-08-24T17:20:25.922Z,100539.31
2022-08-24T17:22:52.877Z,100534.97
2022-08-24T17:25:19.719Z,100542.81
2022-08-24T17:27:47.565Z,100544.31
2022-08-24T17:30:18.457Z,100540.28
2022-08-24T17:32:45.229Z,100545.56
2022-08-24T17:35:12.824Z,100548.81
2022-08-24T17:37:39.798Z,100548.16
2022-08-24T17:40:10.556Z,100557.16
2022-08-24T17:42:50.995Z,100555.34
2022-08-24T17:45:19.104Z,100551.53
2022-08-24T17:47:46.318Z,100562.56
2022-08-24T17:50:14.791Z,100558.03
2022-08-24T17:52:42.518Z,100564.06
2022-08-24T17:55:11.775Z,100562.75
2022-08-24T17:57:39.486Z,100562.06
2022-08-24T18:00:09.993Z,100568.69
2022-08-24T18:02:40.204Z,100565.66
2022-08-24T18:05:08.476Z,100564.75
2022-08-24T18:07:52.524Z,100564.63
2022-08-24T18:10:23.859Z,100573.88
2022-08-24T18:12:50.791Z,100576.50
2022-08-24T18:15:18.022Z,100571.66
2022-08-24T18:17:48.508Z,100573.06
2022-08-24T18:20:25.859Z,100571.69
2022-08-24T18:22:53.827Z,100578.03
2022-08-24T18:25:23.116Z,100577.59
2022-08-24T18:27:53.274Z,100582.19
2022-08-24T18:30:30.408Z,100581.59
2022-08-24T18:32:59.867Z,100583.66
2022-08-24T18:35:26.648Z,100588.13
2022-08-24T18:37:53.253Z,100584.91
2022-08-24T18:40:21.674Z,100594.41
2022-08-24T18:42:50.936Z,100588.63
2022-08-24T18:45:18.400Z,100591.41
2022-08-24T18:47:45.411Z,100589.72
2022-08-24T18:50:21.095Z,100597.09
2022-08-24T18:52:48.043Z,100601.41
2022-08-24T18:55:15.277Z,100595.78
2022-08-24T18:57:42.127Z,100599.19
2022-08-24T19:00:10.415Z,100596.78
2022-08-24T19:02:38.008Z,100606.56
2022-08-24T19:05:11.350Z,100601.41
2022-08-24T19:07:41.565Z,100599.44
2022-08-24T19:10:10.092Z,100601.31
2022-08-24T19:12:42.557Z,100607.22
2022-08-24T19:15:29.408Z,100601.84
2022-08-24T19:18:03.134Z,100606.13
2022-08-24T19:20:32.596Z,100597.38
2022-08-24T19:23:07.134Z,100601.47
2022-08-24T19:25:35.300Z,100600.88
2022-08-24T19:28:02.557Z,100601.44
2022-08-24T19:30:29.306Z,100601.09
2022-08-24T19:32:57.623Z,100598.25
2022-08-24T19:35:24.279Z,100600.16
2022-08-24T19:37:51.013Z,100596.16
2022-08-24T19:40:20.736Z,100600.88
2022-08-24T19:42:50.765Z,100588.19
2022-08-24T19:45:40.690Z,100593.63
2022-08-24T19:48:07.453Z,100600.69
2022-08-24T19:50:35.965Z,100598.66
2022-08-24T19:53:04.783Z,100601.41
2022-08-24T19:55:32.750Z,100609.63
2022-08-24T19:58:20.491Z,100607.06
2022-08-24T20:00:57.653Z,100600.22
2022-08-24T20:03:24.986Z,100599.50
2022-08-24T20:05:51.820Z,100604.59
2022-08-24T20:08:21.734Z,100596.38
2022-08-24T20:10:49.659Z,100604.66
2022-08-24T20:13:16.954Z,100602.25
2022-08-24T20:15:43.678Z,100603.25
2022-08-24T20:18:10.716Z,100596.06
2022-08-24T20:20:37.735Z,100603.13
2022-08-24T20:23:06.418Z,100602.81
2022-08-24T20:25:36.188Z,100600.94
2022-08-24T20:28:28.291Z,100603.72
2022-08-24T20:30:52.235Z,100599.53
2022-08-24T20:33:21.128Z,100597.22
2022-08-24T20:35:47.915Z,100607.34
2022-08-24T20:38:18.160Z,100603.44
2022-08-24T20:40:45.955Z,100605.84
2022-08-24T20:43:12.961Z,100602.22
2022-08-24T20:45:41.623Z,100604.19
2022-08-24T20:48:12.049Z,100611.69
2022-08-24T20:50:43.098Z,100606.06
2022-08-24T20:53:11.334Z,100611.69
2022-08-24T20:55:39.715Z,100606.50
2022-08-24T20:58:06.759Z,100608.44
2022-08-24T21:00:34.301Z,100602.34
2022-08-24T21:03:01.082Z,100605.25
2022-08-24T21:05:28.093Z,100602.78
2022-08-24T21:07:57.649Z,100596.53
2022-08-24T21:10:26.465Z,100605.63
2022-08-24T21:12:54.296Z,100603.75
2022-08-24T21:15:22.378Z,100606.50
2022-08-24T21:17:50.260Z,100606.16
2022-08-24T21:20:18.276Z,100605.00
2022-08-24T21:22:46.064Z,100602.78
2022-08-24T21:25:14.577Z,100604.81
2022-08-24T21:27:44.104Z,100609.47
2022-08-24T21:30:14.630Z,100616.47
2022-08-24T21:33:00.053Z,100606.50
2022-08-24T21:35:27.322Z,100610.69
2022-08-24T21:37:54.135Z,100611.66
2022-08-24T21:40:21.806Z,100606.94
2022-08-24T21:42:48.866Z,100611.50
2022-08-24T21:45:16.110Z,100612.38
2022-08-24T21:47:42.947Z,100615.91
2022-08-24T21:50:09.944Z,100621.63
2022-08-24T21:52:37.196Z,100620.13
2022-08-24T21:55:05.553Z,100616.00
2022-08-24T21:57:32.237Z,100616.78
2022-08-24T21:59:59.143Z,100616.34
2022-08-24T22:02:26.085Z,100621.78
2022-08-24T22:04:56.884Z,100621.06
2022-08-24T22:07:24.471Z,100619.25
2022-08-24T22:09:51.296Z,100614.88
2022-08-24T22:12:18.459Z,100626.28
2022-08-24T22:14:45.181Z,100625.53
2022-08-24T22:17:11.908Z,100618.56
2022-08-24T22:19:39.167Z,100628.75
2022-08-24T22:22:06.159Z,100624.25
2022-08-24T22:24:32.813Z,100616.72
2022-08-24T22:26:59.712Z,100623.94
2022-08-24T22:29:26.379Z,100622.78
2022-08-24T22:31:53.065Z,100626.78
2022-08-24T22:34:21.031Z,100623.41
2022-08-24T22:36:49.231Z,100625.06
2022-08-24T22:39:16.515Z,100630.75
2022-08-24T22:41:44.287Z,100623.09
2022-08-24T22:44:20.173Z,100625.75
2022-08-24T22:46:51.106Z,100611.03
2022-08-24T22:49:20.517Z,100619.44
2022-08-24T22:51:48.030Z,100614.94
2022-08-24T22:54:16.054Z,100621.97
2022-08-24T22:56:45.821Z,100620.38
2022-08-24T22:59:18.920Z,100618.50
2022-08-24T23:01:48.712Z,100617.16
2022-08-24T23:04:19.517Z,100609.56
2022-08-24T23:06:46.586Z,100614.16
2022-08-24T23:09:13.562Z,100611.28
2022-08-24T23:11:40.321Z,100609.56
2022-08-24T23:14:09.027Z,100609.69
2022-08-24T23:16:38.964Z,100611.06
2022-08-24T23:19:26.681Z,100614.63
2022-08-24T23:21:53.886Z,100623.72
2022-08-24T23:24:21.731Z,100616.91
2022-08-24T23:26:48.747Z,100613.69
2022-08-24T23:29:16.595Z,100623.84
2022-08-24T23:31:44.270Z,100620.59
2022-08-24T23:34:11.201Z,100617.78
2022-08-24T23:36:39.176Z,100619.16
2022-08-24T23:39:08.269Z,100621.22
2022-08-24T23:41:38.820Z,100620.78
2022-08-24T23:52:43.332Z,100606.41
2022-08-24T23:55:19.996Z,100600.53
2022-08-24T23:57:47.443Z,100602.06
